Badlands National Park, SD

6:20 AM MDT on August 26, 2016 (GMT -0600)
Cactus Flat | | Change Station

Elev 2530 ft 43.81 °N, 101.89 °W | Updated 9 seconds ago

Light Rain
Light Rain
55.4 °F
Feels Like 55.4 °F
N
2.0
Wind Variable Wind from North
Gusts 2.5 mph

Today
High -- | Low -- °F
--% Chance of Precip.
Yesterday
High -- | Low -- °F
Precip. -- in
Pressure 30.12 in
Visibility 10.0 miles
Clouds Overcast 7000 ft
Dew Point 53 °F
Humidity 92%
Rainfall 0.07 in
Snow Depth Not available.
6:05 AM 7:32 PM
Waning Crescent, 35% visible
METAR KPHP 261155Z AUTO 11004KT 10SM -RA OVC070 12/12 A3015 RMK AO2 SLP199 P0002 60004 70004 T01220117 10139 20100 58011
Pressure 30.12 in
Visibility 10.0 miles
Clouds Overcast 7000 ft
Dew Point 53 °F
Humidity 92%
Rainfall 0.07 in
Snow Depth Not available.
6:05 AM 7:32 PM
Waning Crescent, 35% visible
METAR KPHP 261155Z AUTO 11004KT 10SM -RA OVC070 12/12 A3015 RMK AO2 SLP199 P0002 60004 70004 T01220117 10139 20100 58011

10-Day Weather Forecast

Almanac

Astronomy

Aug. 26, 2016 Rise Set
Actual Time
Civil Twilight
Nautical Twilight
Astronomical Twilight
Moon
Length of Visible Light
Length of Day
Tomorrow will be .
, % of the Moon is Illuminated

Today's Extremes

State Highs State Lows

Community

WunderPhotos

Upload Photos

1,935,077 photos uploaded!

WunderBlog® & News

Nearby

Air Quality

  Air Quality AQ Index Pollutant
Not available.

Snow Depth

Station Depth Elevation

Earthquake Activity

City Distance Mag. Time & Date
Minimum magnitude displayed is 2.5.

Coastal Water Temperatures

Place Temperature

Stations

Nearby Weather Stations

Station Location Temp. Windchill Dew Point Humidity Wind Precip. Elev Updated Type
                   

Watches & Warnings

There are currently no watches in effect.